sensor_id;sensor_type;location;lat;lon;timestamp;P1;durP1;ratioP1;P2;durP2;ratioP2
10872;SDS011;34586;53.616;10.032;2023-11-21T00:01:49;19.83;;;13.63;;
10872;SDS011;34586;53.616;10.032;2023-11-21T00:04:14;19.00;;;13.83;;
10872;SDS011;34586;53.616;10.032;2023-11-21T00:06:40;22.07;;;14.30;;
10872;SDS011;34586;53.616;10.032;2023-11-21T00:09:06;25.00;;;15.90;;
10872;SDS011;34586;53.616;10.032;2023-11-21T00:11:33;19.90;;;15.73;;
10872;SDS011;34586;53.616;10.032;2023-11-21T00:13:59;26.13;;;17.03;;
10872;SDS011;34586;53.616;10.032;2023-11-21T00:16:24;24.07;;;16.70;;
10872;SDS011;34586;53.616;10.032;2023-11-21T00:18:50;21.27;;;16.23;;
10872;SDS011;34586;53.616;10.032;2023-11-21T00:21:16;23.30;;;17.03;;
10872;SDS011;34586;53.616;10.032;2023-11-21T00:23:41;27.20;;;19.10;;
10872;SDS011;34586;53.616;10.032;2023-11-21T00:26:07;26.50;;;19.07;;
10872;SDS011;34586;53.616;10.032;2023-11-21T00:28:33;25.30;;;18.90;;
10872;SDS011;34586;53.616;10.032;2023-11-21T00:30:58;26.77;;;19.37;;
10872;SDS011;34586;53.616;10.032;2023-11-21T00:33:24;25.93;;;18.40;;
10872;SDS011;34586;53.616;10.032;2023-11-21T00:35:50;25.77;;;17.53;;
10872;SDS011;34586;53.616;10.032;2023-11-21T00:38:16;21.83;;;15.77;;
10872;SDS011;34586;53.616;10.032;2023-11-21T00:40:44;16.00;;;11.77;;
10872;SDS011;34586;53.616;10.032;2023-11-21T00:43:10;13.23;;;11.13;;
10872;SDS011;34586;53.616;10.032;2023-11-21T00:45:36;19.53;;;12.80;;
10872;SDS011;34586;53.616;10.032;2023-11-21T00:48:01;15.40;;;12.10;;
10872;SDS011;34586;53.616;10.032;2023-11-21T00:50:29;19.10;;;12.90;;
10872;SDS011;34586;53.616;10.032;2023-11-21T00:52:55;17.90;;;13.17;;
10872;SDS011;34586;53.616;10.032;2023-11-21T00:55:21;18.10;;;12.97;;
10872;SDS011;34586;53.616;10.032;2023-11-21T00:57:47;20.27;;;14.47;;
10872;SDS011;34586;53.616;10.032;2023-11-21T01:00:13;17.60;;;13.07;;
10872;SDS011;34586;53.616;10.032;2023-11-21T01:02:42;19.70;;;13.20;;
10872;SDS011;34586;53.616;10.032;2023-11-21T01:05:10;14.53;;;11.93;;
10872;SDS011;34586;53.616;10.032;2023-11-21T01:07:36;16.87;;;12.80;;
10872;SDS011;34586;53.616;10.032;2023-11-21T01:10:02;19.03;;;13.00;;
10872;SDS011;34586;53.616;10.032;2023-11-21T01:12:30;18.43;;;13.50;;
10872;SDS011;34586;53.616;10.032;2023-11-21T01:14:56;16.10;;;13.47;;
10872;SDS011;34586;53.616;10.032;2023-11-21T01:17:25;19.17;;;14.37;;
10872;SDS011;34586;53.616;10.032;2023-11-21T01:19:50;18.27;;;13.83;;
10872;SDS011;34586;53.616;10.032;2023-11-21T01:22:16;17.83;;;12.83;;
10872;SDS011;34586;53.616;10.032;2023-11-21T01:24:43;18.37;;;13.83;;
10872;SDS011;34586;53.616;10.032;2023-11-21T01:27:08;16.83;;;13.93;;
10872;SDS011;34586;53.616;10.032;2023-11-21T01:29:34;17.23;;;14.03;;
10872;SDS011;34586;53.616;10.032;2023-11-21T01:32:00;17.43;;;13.03;;
10872;SDS011;34586;53.616;10.032;2023-11-21T01:34:27;18.03;;;14.63;;
10872;SDS011;34586;53.616;10.032;2023-11-21T01:36:53;18.50;;;13.87;;
10872;SDS011;34586;53.616;10.032;2023-11-21T01:39:19;16.03;;;13.63;;
10872;SDS011;34586;53.616;10.032;2023-11-21T01:41:48;14.80;;;12.63;;
10872;SDS011;34586;53.616;10.032;2023-11-21T01:44:15;15.77;;;12.43;;
10872;SDS011;34586;53.616;10.032;2023-11-21T01:46:41;14.03;;;12.43;;
10872;SDS011;34586;53.616;10.032;2023-11-21T01:49:07;13.37;;;11.00;;
10872;SDS011;34586;53.616;10.032;2023-11-21T01:51:35;14.17;;;10.97;;
10872;SDS011;34586;53.616;10.032;2023-11-21T01:54:02;11.13;;;9.80;;
10872;SDS011;34586;53.616;10.032;2023-11-21T01:56:30;13.70;;;9.93;;
10872;SDS011;34586;53.616;10.032;2023-11-21T01:58:56;10.67;;;9.27;;
10872;SDS011;34586;53.616;10.032;2023-11-21T02:01:22;9.07;;;8.10;;
10872;SDS011;34586;53.616;10.032;2023-11-21T02:03:48;10.03;;;8.20;;
10872;SDS011;34586;53.616;10.032;2023-11-21T02:06:14;9.07;;;7.80;;
10872;SDS011;34586;53.616;10.032;2023-11-21T02:08:39;9.77;;;7.93;;
10872;SDS011;34586;53.616;10.032;2023-11-21T02:11:07;9.80;;;7.80;;
10872;SDS011;34586;53.616;10.032;2023-11-21T02:13:34;10.33;;;7.43;;
10872;SDS011;34586;53.616;10.032;2023-11-21T02:16:00;8.87;;;7.93;;
10872;SDS011;34586;53.616;10.032;2023-11-21T02:18:26;8.23;;;7.37;;
10872;SDS011;34586;53.616;10.032;2023-11-21T02:20:54;9.27;;;7.70;;
10872;SDS011;34586;53.616;10.032;2023-11-21T02:23:20;9.40;;;7.40;;
10872;SDS011;34586;53.616;10.032;2023-11-21T02:25:48;8.40;;;7.40;;
10872;SDS011;34586;53.616;10.032;2023-11-21T02:28:13;8.27;;;7.23;;
10872;SDS011;34586;53.616;10.032;2023-11-21T02:30:41;7.90;;;6.60;;
10872;SDS011;34586;53.616;10.032;2023-11-21T02:33:07;7.23;;;6.63;;
10872;SDS011;34586;53.616;10.032;2023-11-21T02:35:33;7.37;;;6.50;;
10872;SDS011;34586;53.616;10.032;2023-11-21T02:37:59;7.67;;;6.90;;
10872;SDS011;34586;53.616;10.032;2023-11-21T02:40:26;6.90;;;6.20;;
10872;SDS011;34586;53.616;10.032;2023-11-21T02:42:51;7.50;;;6.50;;
10872;SDS011;34586;53.616;10.032;2023-11-21T02:45:17;9.03;;;6.87;;
10872;SDS011;34586;53.616;10.032;2023-11-21T02:47:46;8.67;;;6.90;;
10872;SDS011;34586;53.616;10.032;2023-11-21T02:50:14;7.00;;;6.30;;
10872;SDS011;34586;53.616;10.032;2023-11-21T02:52:39;8.13;;;6.93;;
10872;SDS011;34586;53.616;10.032;2023-11-21T02:55:05;9.03;;;6.67;;
10872;SDS011;34586;53.616;10.032;2023-11-21T02:57:32;8.93;;;7.33;;
10872;SDS011;34586;53.616;10.032;2023-11-21T02:59:58;8.70;;;6.80;;
10872;SDS011;34586;53.616;10.032;2023-11-21T03:02:25;8.97;;;7.20;;
10872;SDS011;34586;53.616;10.032;2023-11-21T03:04:50;9.80;;;7.40;;
10872;SDS011;34586;53.616;10.032;2023-11-21T03:07:16;8.23;;;7.20;;
10872;SDS011;34586;53.616;10.032;2023-11-21T03:09:45;8.83;;;7.23;;
10872;SDS011;34586;53.616;10.032;2023-11-21T03:12:11;8.30;;;7.50;;
10872;SDS011;34586;53.616;10.032;2023-11-21T03:14:41;8.47;;;7.40;;
10872;SDS011;34586;53.616;10.032;2023-11-21T03:17:06;9.53;;;7.83;;
10872;SDS011;34586;53.616;10.032;2023-11-21T03:19:32;8.90;;;8.00;;
10872;SDS011;34586;53.616;10.032;2023-11-21T03:21:58;10.17;;;7.53;;
10872;SDS011;34586;53.616;10.032;2023-11-21T03:24:23;9.83;;;8.33;;
10872;SDS011;34586;53.616;10.032;2023-11-21T03:26:49;8.53;;;7.60;;
10872;SDS011;34586;53.616;10.032;2023-11-21T03:29:16;8.87;;;7.97;;
10872;SDS011;34586;53.616;10.032;2023-11-21T03:31:41;9.57;;;8.50;;
10872;SDS011;34586;53.616;10.032;2023-11-21T03:34:09;10.23;;;8.40;;
10872;SDS011;34586;53.616;10.032;2023-11-21T03:36:40;10.53;;;8.03;;
10872;SDS011;34586;53.616;10.032;2023-11-21T03:39:05;10.83;;;7.93;;
10872;SDS011;34586;53.616;10.032;2023-11-21T03:41:31;9.63;;;7.87;;
10872;SDS011;34586;53.616;10.032;2023-11-21T03:43:57;11.63;;;9.10;;
10872;SDS011;34586;53.616;10.032;2023-11-21T03:46:22;10.83;;;8.37;;
10872;SDS011;34586;53.616;10.032;2023-11-21T03:48:48;11.67;;;8.10;;
10872;SDS011;34586;53.616;10.032;2023-11-21T03:51:13;9.33;;;8.33;;
10872;SDS011;34586;53.616;10.032;2023-11-21T03:53:39;9.07;;;8.07;;
10872;SDS011;34586;53.616;10.032;2023-11-21T03:56:04;10.47;;;8.10;;
10872;SDS011;34586;53.616;10.032;2023-11-21T03:58:30;9.10;;;8.20;;
10872;SDS011;34586;53.616;10.032;2023-11-21T04:00:56;9.63;;;8.43;;
10872;SDS011;34586;53.616;10.032;2023-11-21T04:03:21;10.13;;;8.07;;
10872;SDS011;34586;53.616;10.032;2023-11-21T04:05:47;9.07;;;8.03;;
10872;SDS011;34586;53.616;10.032;2023-11-21T04:08:12;10.13;;;8.73;;
10872;SDS011;34586;53.616;10.032;2023-11-21T04:10:38;9.70;;;8.70;;
10872;SDS011;34586;53.616;10.032;2023-11-21T04:13:04;11.20;;;8.70;;
10872;SDS011;34586;53.616;10.032;2023-11-21T04:15:31;9.97;;;8.63;;
10872;SDS011;34586;53.616;10.032;2023-11-21T04:17:57;9.23;;;8.13;;
10872;SDS011;34586;53.616;10.032;2023-11-21T04:20:23;9.17;;;8.20;;
10872;SDS011;34586;53.616;10.032;2023-11-21T04:22:49;9.03;;;7.67;;
10872;SDS011;34586;53.616;10.032;2023-11-21T04:25:15;10.03;;;8.80;;
10872;SDS011;34586;53.616;10.032;2023-11-21T04:27:41;10.73;;;8.90;;
10872;SDS011;34586;53.616;10.032;2023-11-21T04:30:09;12.27;;;8.90;;
10872;SDS011;34586;53.616;10.032;2023-11-21T04:32:35;10.33;;;8.70;;
10872;SDS011;34586;53.616;10.032;2023-11-21T04:35:01;9.60;;;8.43;;
10872;SDS011;34586;53.616;10.032;2023-11-21T04:37:27;9.67;;;8.03;;
10872;SDS011;34586;53.616;10.032;2023-11-21T04:39:52;9.93;;;8.93;;
10872;SDS011;34586;53.616;10.032;2023-11-21T04:42:18;11.07;;;9.13;;
10872;SDS011;34586;53.616;10.032;2023-11-21T04:44:43;9.47;;;8.50;;
10872;SDS011;34586;53.616;10.032;2023-11-21T04:47:09;9.27;;;8.27;;
10872;SDS011;34586;53.616;10.032;2023-11-21T04:49:35;10.67;;;9.23;;
10872;SDS011;34586;53.616;10.032;2023-11-21T04:52:01;10.53;;;8.17;;
10872;SDS011;34586;53.616;10.032;2023-11-21T04:54:28;9.57;;;8.67;;
10872;SDS011;34586;53.616;10.032;2023-11-21T04:56:55;11.30;;;9.40;;
10872;SDS011;34586;53.616;10.032;2023-11-21T04:59:21;11.30;;;9.10;;
10872;SDS011;34586;53.616;10.032;2023-11-21T05:01:49;10.27;;;8.57;;
10872;SDS011;34586;53.616;10.032;2023-11-21T05:04:15;11.47;;;8.63;;
10872;SDS011;34586;53.616;10.032;2023-11-21T05:06:41;9.37;;;8.33;;
10872;SDS011;34586;53.616;10.032;2023-11-21T05:09:06;9.40;;;8.40;;
10872;SDS011;34586;53.616;10.032;2023-11-21T05:11:36;10.33;;;7.83;;
10872;SDS011;34586;53.616;10.032;2023-11-21T05:14:02;9.60;;;8.60;;
10872;SDS011;34586;53.616;10.032;2023-11-21T05:16:29;10.37;;;8.40;;
10872;SDS011;34586;53.616;10.032;2023-11-21T05:18:54;9.07;;;8.07;;
10872;SDS011;34586;53.616;10.032;2023-11-21T05:21:25;10.20;;;8.20;;
10872;SDS011;34586;53.616;10.032;2023-11-21T05:23:51;9.30;;;8.30;;
10872;SDS011;34586;53.616;10.032;2023-11-21T05:26:17;8.97;;;8.00;;
10872;SDS011;34586;53.616;10.032;2023-11-21T05:28:43;9.13;;;7.87;;
10872;SDS011;34586;53.616;10.032;2023-11-21T05:31:08;8.50;;;7.70;;
10872;SDS011;34586;53.616;10.032;2023-11-21T05:33:35;9.83;;;8.07;;
10872;SDS011;34586;53.616;10.032;2023-11-21T05:36:01;10.73;;;8.40;;
10872;SDS011;34586;53.616;10.032;2023-11-21T05:38:27;9.13;;;8.23;;
10872;SDS011;34586;53.616;10.032;2023-11-21T05:40:52;8.27;;;7.27;;
10872;SDS011;34586;53.616;10.032;2023-11-21T05:43:18;10.37;;;7.77;;
10872;SDS011;34586;53.616;10.032;2023-11-21T05:45:43;8.53;;;7.77;;
10872;SDS011;34586;53.616;10.032;2023-11-21T05:48:09;8.90;;;8.00;;
10872;SDS011;34586;53.616;10.032;2023-11-21T05:50:35;9.10;;;7.63;;
10872;SDS011;34586;53.616;10.032;2023-11-21T05:53:02;9.23;;;7.83;;
10872;SDS011;34586;53.616;10.032;2023-11-21T05:55:28;8.87;;;7.97;;
10872;SDS011;34586;53.616;10.032;2023-11-21T05:57:54;8.90;;;8.00;;
10872;SDS011;34586;53.616;10.032;2023-11-21T06:00:20;10.23;;;7.87;;
10872;SDS011;34586;53.616;10.032;2023-11-21T06:02:50;9.63;;;8.63;;
10872;SDS011;34586;53.616;10.032;2023-11-21T06:05:21;10.27;;;8.43;;
10872;SDS011;34586;53.616;10.032;2023-11-21T06:07:51;8.60;;;7.67;;
10872;SDS011;34586;53.616;10.032;2023-11-21T06:10:19;8.47;;;7.50;;
10872;SDS011;34586;53.616;10.032;2023-11-21T06:12:45;8.60;;;7.70;;
10872;SDS011;34586;53.616;10.032;2023-11-21T06:15:11;10.77;;;8.50;;
10872;SDS011;34586;53.616;10.032;2023-11-21T06:17:38;9.00;;;8.10;;
10872;SDS011;34586;53.616;10.032;2023-11-21T06:20:08;9.90;;;8.53;;
10872;SDS011;34586;53.616;10.032;2023-11-21T06:22:38;9.17;;;7.97;;
10872;SDS011;34586;53.616;10.032;2023-11-21T06:25:05;10.00;;;8.17;;
10872;SDS011;34586;53.616;10.032;2023-11-21T06:27:33;10.37;;;8.40;;
10872;SDS011;34586;53.616;10.032;2023-11-21T06:30:01;10.67;;;9.13;;
10872;SDS011;34586;53.616;10.032;2023-11-21T06:32:27;13.57;;;9.20;;
10872;SDS011;34586;53.616;10.032;2023-11-21T06:34:54;9.07;;;8.13;;
10872;SDS011;34586;53.616;10.032;2023-11-21T06:37:20;13.50;;;8.93;;
10872;SDS011;34586;53.616;10.032;2023-11-21T06:39:48;9.90;;;8.57;;
10872;SDS011;34586;53.616;10.032;2023-11-21T06:42:14;11.37;;;8.80;;
10872;SDS011;34586;53.616;10.032;2023-11-21T06:44:40;9.70;;;8.70;;
10872;SDS011;34586;53.616;10.032;2023-11-21T06:47:06;10.63;;;8.67;;
10872;SDS011;34586;53.616;10.032;2023-11-21T06:49:32;9.97;;;8.73;;
10872;SDS011;34586;53.616;10.032;2023-11-21T06:51:58;10.43;;;9.33;;
10872;SDS011;34586;53.616;10.032;2023-11-21T06:54:24;8.60;;;7.80;;
10872;SDS011;34586;53.616;10.032;2023-11-21T06:56:51;8.97;;;8.07;;
10872;SDS011;34586;53.616;10.032;2023-11-21T06:59:18;12.93;;;9.33;;
10872;SDS011;34586;53.616;10.032;2023-11-21T07:01:44;10.87;;;9.20;;
10872;SDS011;34586;53.616;10.032;2023-11-21T07:04:09;12.60;;;11.17;;
10872;SDS011;34586;53.616;10.032;2023-11-21T07:06:35;10.33;;;9.27;;
10872;SDS011;34586;53.616;10.032;2023-11-21T07:09:01;15.70;;;13.60;;
10872;SDS011;34586;53.616;10.032;2023-11-21T07:11:28;33.83;;;27.40;;
10872;SDS011;34586;53.616;10.032;2023-11-21T07:13:53;25.37;;;22.07;;
10872;SDS011;34586;53.616;10.032;2023-11-21T07:16:19;16.23;;;14.30;;
10872;SDS011;34586;53.616;10.032;2023-11-21T07:18:44;12.57;;;9.63;;
10872;SDS011;34586;53.616;10.032;2023-11-21T07:21:10;10.67;;;9.03;;
10872;SDS011;34586;53.616;10.032;2023-11-21T07:23:37;12.43;;;10.40;;
10872;SDS011;34586;53.616;10.032;2023-11-21T07:26:03;11.40;;;8.83;;
10872;SDS011;34586;53.616;10.032;2023-11-21T07:28:33;10.13;;;9.13;;
10872;SDS011;34586;53.616;10.032;2023-11-21T07:30:59;10.80;;;9.67;;
10872;SDS011;34586;53.616;10.032;2023-11-21T07:33:25;11.20;;;10.00;;
10872;SDS011;34586;53.616;10.032;2023-11-21T07:35:50;9.77;;;8.87;;
10872;SDS011;34586;53.616;10.032;2023-11-21T07:38:17;11.80;;;9.57;;
10872;SDS011;34586;53.616;10.032;2023-11-21T07:40:42;12.27;;;10.20;;
10872;SDS011;34586;53.616;10.032;2023-11-21T07:43:08;9.90;;;7.93;;
10872;SDS011;34586;53.616;10.032;2023-11-21T07:45:35;10.17;;;8.20;;
10872;SDS011;34586;53.616;10.032;2023-11-21T07:48:01;9.63;;;7.87;;
10872;SDS011;34586;53.616;10.032;2023-11-21T07:50:28;8.47;;;7.43;;
10872;SDS011;34586;53.616;10.032;2023-11-21T07:52:54;7.97;;;7.17;;
10872;SDS011;34586;53.616;10.032;2023-11-21T07:55:20;10.23;;;7.47;;
10872;SDS011;34586;53.616;10.032;2023-11-21T07:57:46;8.00;;;6.77;;
10872;SDS011;34586;53.616;10.032;2023-11-21T08:00:12;7.60;;;6.60;;
10872;SDS011;34586;53.616;10.032;2023-11-21T08:02:40;9.10;;;6.40;;
10872;SDS011;34586;53.616;10.032;2023-11-21T08:05:11;7.40;;;6.60;;
10872;SDS011;34586;53.616;10.032;2023-11-21T08:07:37;7.37;;;6.47;;
10872;SDS011;34586;53.616;10.032;2023-11-21T08:10:03;6.97;;;6.27;;
10872;SDS011;34586;53.616;10.032;2023-11-21T08:12:30;7.50;;;6.00;;
10872;SDS011;34586;53.616;10.032;2023-11-21T08:14:55;7.03;;;6.00;;
10872;SDS011;34586;53.616;10.032;2023-11-21T08:17:21;6.67;;;5.30;;
10872;SDS011;34586;53.616;10.032;2023-11-21T08:19:47;6.20;;;5.60;;
10872;SDS011;34586;53.616;10.032;2023-11-21T08:22:15;6.73;;;5.00;;
10872;SDS011;34586;53.616;10.032;2023-11-21T08:24:42;6.03;;;4.93;;
10872;SDS011;34586;53.616;10.032;2023-11-21T08:27:09;6.07;;;5.00;;
10872;SDS011;34586;53.616;10.032;2023-11-21T08:29:34;7.90;;;4.87;;
10872;SDS011;34586;53.616;10.032;2023-11-21T08:32:01;6.90;;;4.53;;
10872;SDS011;34586;53.616;10.032;2023-11-21T08:34:27;5.00;;;4.27;;
10872;SDS011;34586;53.616;10.032;2023-11-21T08:36:53;6.27;;;4.33;;
10872;SDS011;34586;53.616;10.032;2023-11-21T08:39:20;5.33;;;4.40;;
10872;SDS011;34586;53.616;10.032;2023-11-21T08:41:49;4.43;;;4.03;;
10872;SDS011;34586;53.616;10.032;2023-11-21T08:44:15;4.53;;;4.13;;
10872;SDS011;34586;53.616;10.032;2023-11-21T08:46:43;5.07;;;4.57;;
10872;SDS011;34586;53.616;10.032;2023-11-21T08:49:10;6.33;;;4.87;;
10872;SDS011;34586;53.616;10.032;2023-11-21T08:51:36;4.60;;;4.10;;
10872;SDS011;34586;53.616;10.032;2023-11-21T08:54:02;7.40;;;4.57;;
10872;SDS011;34586;53.616;10.032;2023-11-21T08:56:32;6.27;;;5.20;;
10872;SDS011;34586;53.616;10.032;2023-11-21T08:58:58;6.10;;;5.53;;
10872;SDS011;34586;53.616;10.032;2023-11-21T09:01:27;5.20;;;4.70;;
10872;SDS011;34586;53.616;10.032;2023-11-21T09:03:53;5.67;;;5.17;;
10872;SDS011;34586;53.616;10.032;2023-11-21T09:06:18;5.80;;;5.17;;
10872;SDS011;34586;53.616;10.032;2023-11-21T09:08:44;6.10;;;5.50;;
10872;SDS011;34586;53.616;10.032;2023-11-21T09:11:09;5.70;;;4.93;;
10872;SDS011;34586;53.616;10.032;2023-11-21T09:13:35;7.30;;;5.50;;
10872;SDS011;34586;53.616;10.032;2023-11-21T09:16:01;6.07;;;5.33;;
10872;SDS011;34586;53.616;10.032;2023-11-21T09:18:27;5.87;;;5.37;;
10872;SDS011;34586;53.616;10.032;2023-11-21T09:20:53;5.00;;;4.60;;
10872;SDS011;34586;53.616;10.032;2023-11-21T09:23:18;5.80;;;4.60;;
10872;SDS011;34586;53.616;10.032;2023-11-21T09:25:44;5.73;;;4.80;;
10872;SDS011;34586;53.616;10.032;2023-11-21T09:28:11;4.50;;;4.10;;
10872;SDS011;34586;53.616;10.032;2023-11-21T09:30:37;4.43;;;4.03;;
10872;SDS011;34586;53.616;10.032;2023-11-21T09:33:03;5.67;;;3.30;;
10872;SDS011;34586;53.616;10.032;2023-11-21T09:35:33;3.30;;;2.80;;
10872;SDS011;34586;53.616;10.032;2023-11-21T09:37:59;3.70;;;3.40;;
10872;SDS011;34586;53.616;10.032;2023-11-21T09:40:26;3.57;;;3.27;;
10872;SDS011;34586;53.616;10.032;2023-11-21T09:42:56;3.83;;;3.23;;
10872;SDS011;34586;53.616;10.032;2023-11-21T09:47:54;3.13;;;2.93;;
10872;SDS011;34586;53.616;10.032;2023-11-21T09:50:21;3.33;;;3.03;;
10872;SDS011;34586;53.616;10.032;2023-11-21T09:55:35;3.33;;;2.97;;
10872;SDS011;34586;53.616;10.032;2023-11-21T09:58:03;3.27;;;2.97;;
10872;SDS011;34586;53.616;10.032;2023-11-21T10:00:32;4.87;;;2.90;;
10872;SDS011;34586;53.616;10.032;2023-11-21T10:02:59;3.60;;;2.70;;
10872;SDS011;34586;53.616;10.032;2023-11-21T10:05:25;5.10;;;4.50;;
10872;SDS011;34586;53.616;10.032;2023-11-21T10:07:50;3.03;;;2.73;;
10872;SDS011;34586;53.616;10.032;2023-11-21T10:10:20;3.73;;;2.87;;
10872;SDS011;34586;53.616;10.032;2023-11-21T10:12:51;3.93;;;2.50;;
10872;SDS011;34586;53.616;10.032;2023-11-21T10:15:24;2.27;;;2.17;;
10872;SDS011;34586;53.616;10.032;2023-11-21T10:17:53;4.70;;;2.43;;
10872;SDS011;34586;53.616;10.032;2023-11-21T10:20:20;2.70;;;2.50;;
10872;SDS011;34586;53.616;10.032;2023-11-21T10:22:46;2.53;;;2.17;;
10872;SDS011;34586;53.616;10.032;2023-11-21T10:25:12;2.60;;;2.40;;
10872;SDS011;34586;53.616;10.032;2023-11-21T10:27:41;2.30;;;2.20;;
10872;SDS011;34586;53.616;10.032;2023-11-21T10:30:08;3.17;;;2.87;;
10872;SDS011;34586;53.616;10.032;2023-11-21T10:32:41;2.37;;;2.17;;
10872;SDS011;34586;53.616;10.032;2023-11-21T10:35:08;3.50;;;2.00;;
10872;SDS011;34586;53.616;10.032;2023-11-21T10:37:37;3.07;;;2.20;;
10872;SDS011;34586;53.616;10.032;2023-11-21T10:40:09;2.80;;;2.03;;
10872;SDS011;34586;53.616;10.032;2023-11-21T10:42:39;2.37;;;2.13;;
10872;SDS011;34586;53.616;10.032;2023-11-21T10:45:05;3.00;;;2.40;;
10872;SDS011;34586;53.616;10.032;2023-11-21T10:47:41;2.63;;;1.93;;
10872;SDS011;34586;53.616;10.032;2023-11-21T10:50:08;2.30;;;2.10;;
10872;SDS011;34586;53.616;10.032;2023-11-21T10:52:42;2.47;;;2.27;;
10872;SDS011;34586;53.616;10.032;2023-11-21T10:55:18;2.50;;;2.30;;
10872;SDS011;34586;53.616;10.032;2023-11-21T10:57:51;2.90;;;2.20;;
10872;SDS011;34586;53.616;10.032;2023-11-21T11:00:19;2.60;;;2.40;;
10872;SDS011;34586;53.616;10.032;2023-11-21T11:02:46;2.40;;;2.20;;
10872;SDS011;34586;53.616;10.032;2023-11-21T11:05:15;2.50;;;2.30;;
10872;SDS011;34586;53.616;10.032;2023-11-21T11:07:44;2.50;;;2.30;;
10872;SDS011;34586;53.616;10.032;2023-11-21T11:10:13;3.20;;;2.23;;
10872;SDS011;34586;53.616;10.032;2023-11-21T11:12:39;2.10;;;1.93;;
10872;SDS011;34586;53.616;10.032;2023-11-21T11:15:05;2.50;;;2.30;;
10872;SDS011;34586;53.616;10.032;2023-11-21T11:17:34;2.70;;;2.50;;
10872;SDS011;34586;53.616;10.032;2023-11-21T11:20:03;3.63;;;2.73;;
10872;SDS011;34586;53.616;10.032;2023-11-21T11:22:42;3.10;;;2.87;;
10872;SDS011;34586;53.616;10.032;2023-11-21T11:28:10;2.87;;;2.40;;
10872;SDS011;34586;53.616;10.032;2023-11-21T11:36:13;3.63;;;2.50;;
10872;SDS011;34586;53.616;10.032;2023-11-21T11:39:01;3.57;;;2.17;;
10872;SDS011;34586;53.616;10.032;2023-11-21T11:41:30;2.00;;;1.90;;
10872;SDS011;34586;53.616;10.032;2023-11-21T11:44:01;3.00;;;1.97;;
10872;SDS011;34586;53.616;10.032;2023-11-21T11:46:43;2.60;;;2.37;;
10872;SDS011;34586;53.616;10.032;2023-11-21T11:49:24;2.30;;;1.87;;
10872;SDS011;34586;53.616;10.032;2023-11-21T11:55:07;2.00;;;1.80;;
10872;SDS011;34586;53.616;10.032;2023-11-21T11:57:35;4.20;;;1.97;;
10872;SDS011;34586;53.616;10.032;2023-11-21T12:02:46;2.63;;;2.03;;
10872;SDS011;34586;53.616;10.032;2023-11-21T12:05:22;2.10;;;2.00;;
10872;SDS011;34586;53.616;10.032;2023-11-21T12:07:52;2.37;;;1.97;;
10872;SDS011;34586;53.616;10.032;2023-11-21T12:10:19;3.77;;;2.07;;
10872;SDS011;34586;53.616;10.032;2023-11-21T12:12:50;3.67;;;2.30;;
10872;SDS011;34586;53.616;10.032;2023-11-21T12:15:20;2.30;;;2.10;;
10872;SDS011;34586;53.616;10.032;2023-11-21T12:17:46;2.10;;;1.93;;
10872;SDS011;34586;53.616;10.032;2023-11-21T12:20:14;2.30;;;2.10;;
10872;SDS011;34586;53.616;10.032;2023-11-21T12:22:49;2.40;;;2.30;;
10872;SDS011;34586;53.616;10.032;2023-11-21T12:25:17;4.17;;;2.70;;
10872;SDS011;34586;53.616;10.032;2023-11-21T12:27:48;3.10;;;2.40;;
10872;SDS011;34586;53.616;10.032;2023-11-21T12:30:15;3.43;;;2.47;;
10872;SDS011;34586;53.616;10.032;2023-11-21T12:32:42;2.73;;;2.20;;
10872;SDS011;34586;53.616;10.032;2023-11-21T12:35:11;4.23;;;2.50;;
10872;SDS011;34586;53.616;10.032;2023-11-21T12:37:40;3.37;;;2.43;;
10872;SDS011;34586;53.616;10.032;2023-11-21T12:40:09;2.60;;;2.40;;
10872;SDS011;34586;53.616;10.032;2023-11-21T12:42:47;2.87;;;2.50;;
10872;SDS011;34586;53.616;10.032;2023-11-21T12:47:49;2.60;;;2.40;;
10872;SDS011;34586;53.616;10.032;2023-11-21T12:50:18;2.63;;;2.43;;
10872;SDS011;34586;53.616;10.032;2023-11-21T12:52:49;2.83;;;2.43;;
10872;SDS011;34586;53.616;10.032;2023-11-21T12:55:21;3.27;;;2.37;;
10872;SDS011;34586;53.616;10.032;2023-11-21T12:57:51;5.07;;;2.40;;
10872;SDS011;34586;53.616;10.032;2023-11-21T13:00:19;7.23;;;2.90;;
10872;SDS011;34586;53.616;10.032;2023-11-21T13:02:57;2.50;;;2.30;;
10872;SDS011;34586;53.616;10.032;2023-11-21T13:05:30;2.60;;;2.40;;
10872;SDS011;34586;53.616;10.032;2023-11-21T13:08:02;5.13;;;2.77;;
10872;SDS011;34586;53.616;10.032;2023-11-21T13:10:29;3.10;;;2.77;;
10872;SDS011;34586;53.616;10.032;2023-11-21T13:12:59;3.50;;;2.77;;
10872;SDS011;34586;53.616;10.032;2023-11-21T13:15:29;3.17;;;2.20;;
10872;SDS011;34586;53.616;10.032;2023-11-21T13:17:56;2.90;;;2.43;;
10872;SDS011;34586;53.616;10.032;2023-11-21T13:20:24;3.97;;;3.50;;
10872;SDS011;34586;53.616;10.032;2023-11-21T13:22:54;2.93;;;2.53;;
10872;SDS011;34586;53.616;10.032;2023-11-21T13:25:25;3.17;;;2.90;;
10872;SDS011;34586;53.616;10.032;2023-11-21T13:27:55;4.60;;;3.50;;
10872;SDS011;34586;53.616;10.032;2023-11-21T13:30:22;2.70;;;2.40;;
10872;SDS011;34586;53.616;10.032;2023-11-21T13:32:52;3.27;;;2.50;;
10872;SDS011;34586;53.616;10.032;2023-11-21T13:35:22;3.27;;;3.07;;
10872;SDS011;34586;53.616;10.032;2023-11-21T13:37:56;3.93;;;3.40;;
10872;SDS011;34586;53.616;10.032;2023-11-21T13:40:25;2.73;;;2.53;;
10872;SDS011;34586;53.616;10.032;2023-11-21T13:42:52;3.07;;;2.60;;
10872;SDS011;34586;53.616;10.032;2023-11-21T13:45:21;3.27;;;2.97;;
10872;SDS011;34586;53.616;10.032;2023-11-21T13:47:48;2.90;;;2.70;;
10872;SDS011;34586;53.616;10.032;2023-11-21T13:50:16;2.70;;;2.50;;
10872;SDS011;34586;53.616;10.032;2023-11-21T13:52:47;2.27;;;2.17;;
10872;SDS011;34586;53.616;10.032;2023-11-21T13:55:14;2.20;;;2.07;;
10872;SDS011;34586;53.616;10.032;2023-11-21T13:57:44;2.47;;;2.27;;
10872;SDS011;34586;53.616;10.032;2023-11-21T14:00:12;2.40;;;2.20;;
10872;SDS011;34586;53.616;10.032;2023-11-21T14:02:58;3.80;;;2.40;;
10872;SDS011;34586;53.616;10.032;2023-11-21T14:05:27;2.67;;;2.40;;
10872;SDS011;34586;53.616;10.032;2023-11-21T14:07:57;2.67;;;2.30;;
10872;SDS011;34586;53.616;10.032;2023-11-21T14:10:29;2.60;;;2.40;;
10872;SDS011;34586;53.616;10.032;2023-11-21T14:13:05;3.50;;;2.60;;
10872;SDS011;34586;53.616;10.032;2023-11-21T14:15:31;3.57;;;2.20;;
10872;SDS011;34586;53.616;10.032;2023-11-21T14:17:58;3.33;;;2.50;;
10872;SDS011;34586;53.616;10.032;2023-11-21T14:20:32;2.93;;;2.30;;
10872;SDS011;34586;53.616;10.032;2023-11-21T14:22:58;3.27;;;2.97;;
10872;SDS011;34586;53.616;10.032;2023-11-21T14:25:24;4.00;;;3.10;;
10872;SDS011;34586;53.616;10.032;2023-11-21T14:27:49;2.63;;;2.37;;
10872;SDS011;34586;53.616;10.032;2023-11-21T14:30:15;1.93;;;1.83;;
10872;SDS011;34586;53.616;10.032;2023-11-21T14:32:44;1.80;;;1.70;;
10872;SDS011;34586;53.616;10.032;2023-11-21T14:35:10;3.27;;;2.07;;
10872;SDS011;34586;53.616;10.032;2023-11-21T14:37:35;1.70;;;1.60;;
10872;SDS011;34586;53.616;10.032;2023-11-21T14:40:01;2.63;;;2.07;;
10872;SDS011;34586;53.616;10.032;2023-11-21T14:42:29;1.50;;;1.40;;
10872;SDS011;34586;53.616;10.032;2023-11-21T14:44:55;2.83;;;1.63;;
10872;SDS011;34586;53.616;10.032;2023-11-21T14:47:25;3.50;;;1.90;;
10872;SDS011;34586;53.616;10.032;2023-11-21T14:49:52;1.80;;;1.70;;
10872;SDS011;34586;53.616;10.032;2023-11-21T14:52:21;1.40;;;1.30;;